sensor_id;sensor_type;location;lat;lon;timestamp;temperature;humidity
3408;DHT22;1717;50.240;8.406;2023-07-02T00:01:52;18.70;99.90
3408;DHT22;1717;50.240;8.406;2023-07-02T00:04:19;18.60;99.90
3408;DHT22;1717;50.240;8.406;2023-07-02T00:06:46;18.70;99.90
3408;DHT22;1717;50.240;8.406;2023-07-02T00:09:14;18.60;99.90
3408;DHT22;1717;50.240;8.406;2023-07-02T00:11:44;18.60;99.90
3408;DHT22;1717;50.240;8.406;2023-07-02T00:14:12;18.60;99.90
3408;DHT22;1717;50.240;8.406;2023-07-02T00:16:41;18.50;99.90
3408;DHT22;1717;50.240;8.406;2023-07-02T00:19:08;18.50;99.90
3408;DHT22;1717;50.240;8.406;2023-07-02T00:21:35;18.40;99.90
3408;DHT22;1717;50.240;8.406;2023-07-02T00:24:03;18.50;99.90
3408;DHT22;1717;50.240;8.406;2023-07-02T00:26:30;18.40;99.90
3408;DHT22;1717;50.240;8.406;2023-07-02T00:28:58;18.40;99.90
3408;DHT22;1717;50.240;8.406;2023-07-02T00:31:25;18.40;99.90
3408;DHT22;1717;50.240;8.406;2023-07-02T00:33:52;18.40;99.90
3408;DHT22;1717;50.240;8.406;2023-07-02T00:36:18;18.40;99.90
3408;DHT22;1717;50.240;8.406;2023-07-02T00:38:46;18.40;99.90
3408;DHT22;1717;50.240;8.406;2023-07-02T00:41:14;18.50;99.90
3408;DHT22;1717;50.240;8.406;2023-07-02T00:43:42;18.40;99.90
3408;DHT22;1717;50.240;8.406;2023-07-02T00:46:13;18.40;99.90
3408;DHT22;1717;50.240;8.406;2023-07-02T00:48:43;18.30;99.90
3408;DHT22;1717;50.240;8.406;2023-07-02T00:51:12;18.40;99.90
3408;DHT22;1717;50.240;8.406;2023-07-02T00:53:40;18.30;99.90
3408;DHT22;1717;50.240;8.406;2023-07-02T00:56:07;18.30;99.90
3408;DHT22;1717;50.240;8.406;2023-07-02T00:58:38;18.30;99.90
3408;DHT22;1717;50.240;8.406;2023-07-02T01:01:05;18.20;99.90
3408;DHT22;1717;50.240;8.406;2023-07-02T01:03:33;18.20;99.90
3408;DHT22;1717;50.240;8.406;2023-07-02T01:06:03;18.20;99.90
3408;DHT22;1717;50.240;8.406;2023-07-02T01:08:29;18.10;99.90
3408;DHT22;1717;50.240;8.406;2023-07-02T01:10:57;18.10;99.90
3408;DHT22;1717;50.240;8.406;2023-07-02T01:13:26;18.10;99.90
3408;DHT22;1717;50.240;8.406;2023-07-02T01:15:53;18.10;99.90
3408;DHT22;1717;50.240;8.406;2023-07-02T01:18:21;18.00;99.90
3408;DHT22;1717;50.240;8.406;2023-07-02T01:20:50;18.00;99.90
3408;DHT22;1717;50.240;8.406;2023-07-02T01:23:19;18.00;99.90
3408;DHT22;1717;50.240;8.406;2023-07-02T01:25:46;18.00;99.90
3408;DHT22;1717;50.240;8.406;2023-07-02T01:28:13;18.00;99.90
3408;DHT22;1717;50.240;8.406;2023-07-02T01:30:40;18.00;99.90
3408;DHT22;1717;50.240;8.406;2023-07-02T01:33:07;18.00;99.90
3408;DHT22;1717;50.240;8.406;2023-07-02T01:35:34;18.00;99.90
3408;DHT22;1717;50.240;8.406;2023-07-02T01:38:02;17.90;99.90
3408;DHT22;1717;50.240;8.406;2023-07-02T01:40:29;17.90;99.90
3408;DHT22;1717;50.240;8.406;2023-07-02T01:42:55;17.90;99.90
3408;DHT22;1717;50.240;8.406;2023-07-02T01:45:22;17.90;99.90
3408;DHT22;1717;50.240;8.406;2023-07-02T01:47:49;17.90;99.90
3408;DHT22;1717;50.240;8.406;2023-07-02T01:50:16;17.90;99.90
3408;DHT22;1717;50.240;8.406;2023-07-02T01:52:43;17.90;99.90
3408;DHT22;1717;50.240;8.406;2023-07-02T01:55:11;17.90;99.90
3408;DHT22;1717;50.240;8.406;2023-07-02T01:57:38;17.90;99.90
3408;DHT22;1717;50.240;8.406;2023-07-02T02:00:06;17.90;99.90
3408;DHT22;1717;50.240;8.406;2023-07-02T02:02:34;17.90;99.90
3408;DHT22;1717;50.240;8.406;2023-07-02T02:05:01;17.90;99.90
3408;DHT22;1717;50.240;8.406;2023-07-02T02:07:28;17.90;99.90
3408;DHT22;1717;50.240;8.406;2023-07-02T02:09:55;17.80;99.90
3408;DHT22;1717;50.240;8.406;2023-07-02T02:12:23;17.80;99.90
3408;DHT22;1717;50.240;8.406;2023-07-02T02:14:50;17.80;99.90
3408;DHT22;1717;50.240;8.406;2023-07-02T02:17:17;17.80;99.90
3408;DHT22;1717;50.240;8.406;2023-07-02T02:19:44;17.80;99.90
3408;DHT22;1717;50.240;8.406;2023-07-02T02:22:10;17.80;99.90
3408;DHT22;1717;50.240;8.406;2023-07-02T02:24:37;17.80;99.90
3408;DHT22;1717;50.240;8.406;2023-07-02T02:27:04;17.80;99.90
3408;DHT22;1717;50.240;8.406;2023-07-02T02:29:32;17.80;99.90
3408;DHT22;1717;50.240;8.406;2023-07-02T02:31:59;17.80;99.90
3408;DHT22;1717;50.240;8.406;2023-07-02T02:34:26;17.80;99.90
3408;DHT22;1717;50.240;8.406;2023-07-02T02:36:54;17.80;99.90
3408;DHT22;1717;50.240;8.406;2023-07-02T02:39:22;17.80;99.90
3408;DHT22;1717;50.240;8.406;2023-07-02T02:41:49;17.80;99.90
3408;DHT22;1717;50.240;8.406;2023-07-02T02:44:16;17.80;99.90
3408;DHT22;1717;50.240;8.406;2023-07-02T02:46:44;17.80;99.90
3408;DHT22;1717;50.240;8.406;2023-07-02T02:49:10;17.80;99.90
3408;DHT22;1717;50.240;8.406;2023-07-02T02:51:37;17.80;99.90
3408;DHT22;1717;50.240;8.406;2023-07-02T02:54:06;17.80;99.90
3408;DHT22;1717;50.240;8.406;2023-07-02T02:56:32;17.80;99.90
3408;DHT22;1717;50.240;8.406;2023-07-02T02:58:59;17.80;99.90
3408;DHT22;1717;50.240;8.406;2023-07-02T03:01:26;17.80;99.90
3408;DHT22;1717;50.240;8.406;2023-07-02T03:03:58;17.80;99.90
3408;DHT22;1717;50.240;8.406;2023-07-02T03:06:25;17.80;99.90
3408;DHT22;1717;50.240;8.406;2023-07-02T03:08:52;17.80;99.90
3408;DHT22;1717;50.240;8.406;2023-07-02T03:11:19;17.80;99.90
3408;DHT22;1717;50.240;8.406;2023-07-02T03:13:46;17.80;99.90
3408;DHT22;1717;50.240;8.406;2023-07-02T03:16:13;17.80;99.60
3408;DHT22;1717;50.240;8.406;2023-07-02T03:18:39;17.80;99.30
3408;DHT22;1717;50.240;8.406;2023-07-02T03:21:08;17.80;99.00
3408;DHT22;1717;50.240;8.406;2023-07-02T03:23:36;17.80;99.10
3408;DHT22;1717;50.240;8.406;2023-07-02T03:26:03;17.80;98.80
3408;DHT22;1717;50.240;8.406;2023-07-02T03:28:29;17.70;98.80
3408;DHT22;1717;50.240;8.406;2023-07-02T03:30:56;17.70;98.50
3408;DHT22;1717;50.240;8.406;2023-07-02T03:33:23;17.70;98.50
3408;DHT22;1717;50.240;8.406;2023-07-02T03:35:50;17.70;98.60
3408;DHT22;1717;50.240;8.406;2023-07-02T03:38:18;17.70;98.60
3408;DHT22;1717;50.240;8.406;2023-07-02T03:40:45;17.60;98.60
3408;DHT22;1717;50.240;8.406;2023-07-02T03:43:12;17.60;98.60
3408;DHT22;1717;50.240;8.406;2023-07-02T03:45:39;17.60;98.60
3408;DHT22;1717;50.240;8.406;2023-07-02T03:48:06;17.60;98.50
3408;DHT22;1717;50.240;8.406;2023-07-02T03:50:32;17.60;98.40
3408;DHT22;1717;50.240;8.406;2023-07-02T03:52:59;17.60;98.20
3408;DHT22;1717;50.240;8.406;2023-07-02T03:55:27;17.60;97.80
3408;DHT22;1717;50.240;8.406;2023-07-02T03:57:54;17.50;97.50
3408;DHT22;1717;50.240;8.406;2023-07-02T04:00:21;17.60;97.50
3408;DHT22;1717;50.240;8.406;2023-07-02T04:02:48;17.60;97.50
3408;DHT22;1717;50.240;8.406;2023-07-02T04:05:15;17.50;97.30
3408;DHT22;1717;50.240;8.406;2023-07-02T04:07:42;17.50;97.40
3408;DHT22;1717;50.240;8.406;2023-07-02T04:10:09;17.40;97.90
3408;DHT22;1717;50.240;8.406;2023-07-02T04:12:38;17.40;97.50
3408;DHT22;1717;50.240;8.406;2023-07-02T04:15:06;17.30;97.60
3408;DHT22;1717;50.240;8.406;2023-07-02T04:17:33;17.30;97.90
3408;DHT22;1717;50.240;8.406;2023-07-02T04:20:01;17.40;97.80
3408;DHT22;1717;50.240;8.406;2023-07-02T04:22:29;17.30;98.00
3408;DHT22;1717;50.240;8.406;2023-07-02T04:24:56;17.40;97.90
3408;DHT22;1717;50.240;8.406;2023-07-02T04:27:23;17.40;97.80
3408;DHT22;1717;50.240;8.406;2023-07-02T04:29:52;17.50;97.70
3408;DHT22;1717;50.240;8.406;2023-07-02T04:32:20;17.50;97.90
3408;DHT22;1717;50.240;8.406;2023-07-02T04:34:46;17.60;97.40
3408;DHT22;1717;50.240;8.406;2023-07-02T04:37:13;17.60;97.50
3408;DHT22;1717;50.240;8.406;2023-07-02T04:39:41;17.60;97.40
3408;DHT22;1717;50.240;8.406;2023-07-02T04:42:08;17.60;97.30
3408;DHT22;1717;50.240;8.406;2023-07-02T04:44:35;17.70;97.10
3408;DHT22;1717;50.240;8.406;2023-07-02T04:47:04;17.70;97.10
3408;DHT22;1717;50.240;8.406;2023-07-02T04:49:30;17.70;97.10
3408;DHT22;1717;50.240;8.406;2023-07-02T04:51:57;17.70;96.90
3408;DHT22;1717;50.240;8.406;2023-07-02T04:54:24;17.70;96.90
3408;DHT22;1717;50.240;8.406;2023-07-02T04:56:51;17.80;96.80
3408;DHT22;1717;50.240;8.406;2023-07-02T04:59:20;17.80;96.60
3408;DHT22;1717;50.240;8.406;2023-07-02T05:01:47;17.80;96.50
3408;DHT22;1717;50.240;8.406;2023-07-02T05:04:15;17.90;96.50
3408;DHT22;1717;50.240;8.406;2023-07-02T05:06:42;17.90;96.30
3408;DHT22;1717;50.240;8.406;2023-07-02T05:09:09;18.00;96.30
3408;DHT22;1717;50.240;8.406;2023-07-02T05:11:36;18.00;96.30
3408;DHT22;1717;50.240;8.406;2023-07-02T05:14:02;18.00;96.20
3408;DHT22;1717;50.240;8.406;2023-07-02T05:16:29;18.00;96.00
3408;DHT22;1717;50.240;8.406;2023-07-02T05:18:56;18.00;96.00
3408;DHT22;1717;50.240;8.406;2023-07-02T05:21:24;18.10;96.00
3408;DHT22;1717;50.240;8.406;2023-07-02T05:23:51;18.10;95.80
3408;DHT22;1717;50.240;8.406;2023-07-02T05:26:18;18.10;95.60
3408;DHT22;1717;50.240;8.406;2023-07-02T05:28:44;18.10;95.60
3408;DHT22;1717;50.240;8.406;2023-07-02T05:31:11;18.10;95.50
3408;DHT22;1717;50.240;8.406;2023-07-02T05:33:38;18.10;95.60
3408;DHT22;1717;50.240;8.406;2023-07-02T05:36:05;18.10;95.60
3408;DHT22;1717;50.240;8.406;2023-07-02T05:38:34;18.10;95.50
3408;DHT22;1717;50.240;8.406;2023-07-02T05:41:01;18.10;95.40
3408;DHT22;1717;50.240;8.406;2023-07-02T05:43:28;18.10;95.30
3408;DHT22;1717;50.240;8.406;2023-07-02T05:45:58;18.20;95.20
3408;DHT22;1717;50.240;8.406;2023-07-02T05:48:25;18.20;95.00
3408;DHT22;1717;50.240;8.406;2023-07-02T05:50:53;18.30;95.10
3408;DHT22;1717;50.240;8.406;2023-07-02T05:53:20;18.30;94.90
3408;DHT22;1717;50.240;8.406;2023-07-02T05:55:48;18.30;94.90
3408;DHT22;1717;50.240;8.406;2023-07-02T05:58:15;18.40;94.80
3408;DHT22;1717;50.240;8.406;2023-07-02T06:00:42;18.40;94.60
3408;DHT22;1717;50.240;8.406;2023-07-02T06:03:14;18.40;94.60
3408;DHT22;1717;50.240;8.406;2023-07-02T06:05:46;18.20;94.50
3408;DHT22;1717;50.240;8.406;2023-07-02T06:08:13;18.50;94.50
3408;DHT22;1717;50.240;8.406;2023-07-02T06:10:39;18.50;94.40
3408;DHT22;1717;50.240;8.406;2023-07-02T06:13:08;18.50;94.20
3408;DHT22;1717;50.240;8.406;2023-07-02T06:15:34;18.50;94.30
3408;DHT22;1717;50.240;8.406;2023-07-02T06:18:01;18.50;94.20
3408;DHT22;1717;50.240;8.406;2023-07-02T06:20:28;18.60;94.20
3408;DHT22;1717;50.240;8.406;2023-07-02T06:22:55;18.70;94.10
3408;DHT22;1717;50.240;8.406;2023-07-02T06:25:22;18.70;93.90
3408;DHT22;1717;50.240;8.406;2023-07-02T06:27:49;18.70;93.90
3408;DHT22;1717;50.240;8.406;2023-07-02T06:30:17;18.70;93.80
3408;DHT22;1717;50.240;8.406;2023-07-02T06:32:44;18.70;93.60
3408;DHT22;1717;50.240;8.406;2023-07-02T06:35:11;18.70;93.40
3408;DHT22;1717;50.240;8.406;2023-07-02T06:37:38;18.80;93.50
3408;DHT22;1717;50.240;8.406;2023-07-02T06:40:06;18.90;93.40
3408;DHT22;1717;50.240;8.406;2023-07-02T06:42:33;18.90;93.50
3408;DHT22;1717;50.240;8.406;2023-07-02T06:45:01;19.00;93.40
3408;DHT22;1717;50.240;8.406;2023-07-02T06:47:29;19.00;93.40
3408;DHT22;1717;50.240;8.406;2023-07-02T06:49:56;19.10;93.20
3408;DHT22;1717;50.240;8.406;2023-07-02T06:52:23;19.20;93.10
3408;DHT22;1717;50.240;8.406;2023-07-02T06:54:50;19.20;92.90
3408;DHT22;1717;50.240;8.406;2023-07-02T06:57:17;19.30;92.80
3408;DHT22;1717;50.240;8.406;2023-07-02T06:59:44;19.30;92.60
3408;DHT22;1717;50.240;8.406;2023-07-02T07:02:11;19.40;92.40
3408;DHT22;1717;50.240;8.406;2023-07-02T07:04:40;19.50;92.30
3408;DHT22;1717;50.240;8.406;2023-07-02T07:07:07;19.60;92.10
3408;DHT22;1717;50.240;8.406;2023-07-02T07:09:33;19.60;91.90
3408;DHT22;1717;50.240;8.406;2023-07-02T07:12:00;19.70;91.70
3408;DHT22;1717;50.240;8.406;2023-07-02T07:14:27;19.70;91.50
3408;DHT22;1717;50.240;8.406;2023-07-02T07:16:54;19.80;91.40
3408;DHT22;1717;50.240;8.406;2023-07-02T07:19:21;19.80;91.10
3408;DHT22;1717;50.240;8.406;2023-07-02T07:21:49;19.90;91.10
3408;DHT22;1717;50.240;8.406;2023-07-02T07:24:17;19.90;90.90
3408;DHT22;1717;50.240;8.406;2023-07-02T07:26:44;20.00;90.90
3408;DHT22;1717;50.240;8.406;2023-07-02T07:29:11;20.10;90.60
3408;DHT22;1717;50.240;8.406;2023-07-02T07:31:38;20.10;90.50
3408;DHT22;1717;50.240;8.406;2023-07-02T07:34:05;20.20;90.40
3408;DHT22;1717;50.240;8.406;2023-07-02T07:36:32;20.30;90.30
3408;DHT22;1717;50.240;8.406;2023-07-02T07:39:00;20.40;90.10
3408;DHT22;1717;50.240;8.406;2023-07-02T07:41:26;20.40;89.00
3408;DHT22;1717;50.240;8.406;2023-07-02T07:43:53;20.30;87.40
3408;DHT22;1717;50.240;8.406;2023-07-02T07:46:20;20.20;89.50
3408;DHT22;1717;50.240;8.406;2023-07-02T07:48:47;20.30;89.10
3408;DHT22;1717;50.240;8.406;2023-07-02T07:51:14;20.30;89.00
3408;DHT22;1717;50.240;8.406;2023-07-02T07:53:40;20.30;88.60
3408;DHT22;1717;50.240;8.406;2023-07-02T07:56:09;20.40;88.40
3408;DHT22;1717;50.240;8.406;2023-07-02T07:58:36;20.40;87.60
3408;DHT22;1717;50.240;8.406;2023-07-02T08:01:03;20.40;87.60
3408;DHT22;1717;50.240;8.406;2023-07-02T08:03:30;20.50;87.20
3408;DHT22;1717;50.240;8.406;2023-07-02T08:05:57;20.50;86.30
3408;DHT22;1717;50.240;8.406;2023-07-02T08:08:24;20.50;85.40
3408;DHT22;1717;50.240;8.406;2023-07-02T08:10:51;20.60;84.80
3408;DHT22;1717;50.240;8.406;2023-07-02T08:13:19;20.60;84.40
3408;DHT22;1717;50.240;8.406;2023-07-02T08:15:46;20.60;84.00
3408;DHT22;1717;50.240;8.406;2023-07-02T08:18:13;20.70;83.80
3408;DHT22;1717;50.240;8.406;2023-07-02T08:20:40;20.70;83.20
3408;DHT22;1717;50.240;8.406;2023-07-02T08:23:07;20.80;82.90
3408;DHT22;1717;50.240;8.406;2023-07-02T08:25:34;20.90;82.80
3408;DHT22;1717;50.240;8.406;2023-07-02T08:28:01;20.90;82.60
3408;DHT22;1717;50.240;8.406;2023-07-02T08:30:29;20.90;82.00
3408;DHT22;1717;50.240;8.406;2023-07-02T08:32:56;20.90;82.00
3408;DHT22;1717;50.240;8.406;2023-07-02T08:35:23;21.10;82.00
3408;DHT22;1717;50.240;8.406;2023-07-02T08:37:49;21.10;81.60
3408;DHT22;1717;50.240;8.406;2023-07-02T08:40:16;21.20;81.50
3408;DHT22;1717;50.240;8.406;2023-07-02T08:42:45;21.20;80.70
3408;DHT22;1717;50.240;8.406;2023-07-02T08:45:13;21.20;79.60
3408;DHT22;1717;50.240;8.406;2023-07-02T08:47:43;21.20;78.50
3408;DHT22;1717;50.240;8.406;2023-07-02T08:50:11;21.30;78.10
3408;DHT22;1717;50.240;8.406;2023-07-02T08:52:38;21.30;77.60
3408;DHT22;1717;50.240;8.406;2023-07-02T08:55:06;21.30;77.10
3408;DHT22;1717;50.240;8.406;2023-07-02T08:57:34;21.40;76.70
3408;DHT22;1717;50.240;8.406;2023-07-02T09:00:04;21.50;76.60
3408;DHT22;1717;50.240;8.406;2023-07-02T09:02:33;21.50;75.60
3408;DHT22;1717;50.240;8.406;2023-07-02T09:05:02;21.60;75.40
3408;DHT22;1717;50.240;8.406;2023-07-02T09:07:30;21.50;74.70
3408;DHT22;1717;50.240;8.406;2023-07-02T09:09:57;21.50;74.70
3408;DHT22;1717;50.240;8.406;2023-07-02T09:12:25;21.60;74.50
3408;DHT22;1717;50.240;8.406;2023-07-02T09:14:56;21.60;74.10
3408;DHT22;1717;50.240;8.406;2023-07-02T09:17:27;21.60;74.00
3408;DHT22;1717;50.240;8.406;2023-07-02T09:19:55;21.70;74.20
3408;DHT22;1717;50.240;8.406;2023-07-02T09:22:23;21.60;73.80
3408;DHT22;1717;50.240;8.406;2023-07-02T09:24:54;21.70;73.60
3408;DHT22;1717;50.240;8.406;2023-07-02T09:27:33;21.70;73.20
3408;DHT22;1717;50.240;8.406;2023-07-02T09:30:06;21.80;73.10
3408;DHT22;1717;50.240;8.406;2023-07-02T09:32:33;21.80;73.20
3408;DHT22;1717;50.240;8.406;2023-07-02T09:35:00;21.90;73.30
3408;DHT22;1717;50.240;8.406;2023-07-02T09:37:28;21.90;72.90
3408;DHT22;1717;50.240;8.406;2023-07-02T09:39:55;21.90;73.10
3408;DHT22;1717;50.240;8.406;2023-07-02T09:42:22;22.00;72.90
3408;DHT22;1717;50.240;8.406;2023-07-02T09:44:52;22.10;73.00
3408;DHT22;1717;50.240;8.406;2023-07-02T09:47:19;22.10;73.10
3408;DHT22;1717;50.240;8.406;2023-07-02T09:49:52;22.20;72.40
3408;DHT22;1717;50.240;8.406;2023-07-02T09:52:20;22.20;72.00
3408;DHT22;1717;50.240;8.406;2023-07-02T09:54:48;22.30;70.90
3408;DHT22;1717;50.240;8.406;2023-07-02T09:57:15;22.30;70.30
3408;DHT22;1717;50.240;8.406;2023-07-02T09:59:43;22.30;70.30
3408;DHT22;1717;50.240;8.406;2023-07-02T10:02:10;22.20;70.10
3408;DHT22;1717;50.240;8.406;2023-07-02T10:04:41;22.30;69.90
3408;DHT22;1717;50.240;8.406;2023-07-02T10:07:08;22.40;69.80
3408;DHT22;1717;50.240;8.406;2023-07-02T10:09:37;22.50;69.20
3408;DHT22;1717;50.240;8.406;2023-07-02T10:12:19;22.50;68.50
3408;DHT22;1717;50.240;8.406;2023-07-02T10:14:48;22.60;67.10
3408;DHT22;1717;50.240;8.406;2023-07-02T10:17:25;22.70;66.20
3408;DHT22;1717;50.240;8.406;2023-07-02T10:19:54;22.80;65.90
3408;DHT22;1717;50.240;8.406;2023-07-02T10:22:22;22.80;64.60
3408;DHT22;1717;50.240;8.406;2023-07-02T10:24:53;22.80;63.80
3408;DHT22;1717;50.240;8.406;2023-07-02T10:27:34;22.90;63.50
3408;DHT22;1717;50.240;8.406;2023-07-02T10:30:03;22.90;63.60
3408;DHT22;1717;50.240;8.406;2023-07-02T10:32:31;22.80;63.40
3408;DHT22;1717;50.240;8.406;2023-07-02T10:34:59;22.90;63.70
3408;DHT22;1717;50.240;8.406;2023-07-02T10:37:35;22.90;63.80
3408;DHT22;1717;50.240;8.406;2023-07-02T10:40:03;22.90;63.70
3408;DHT22;1717;50.240;8.406;2023-07-02T10:42:31;23.00;63.00
3408;DHT22;1717;50.240;8.406;2023-07-02T10:45:00;23.10;63.20
3408;DHT22;1717;50.240;8.406;2023-07-02T10:47:28;23.20;62.30
3408;DHT22;1717;50.240;8.406;2023-07-02T10:49:56;23.30;61.50
3408;DHT22;1717;50.240;8.406;2023-07-02T10:52:23;23.30;60.00
3408;DHT22;1717;50.240;8.406;2023-07-02T10:54:50;23.30;59.10
3408;DHT22;1717;50.240;8.406;2023-07-02T10:57:18;23.30;59.10
3408;DHT22;1717;50.240;8.406;2023-07-02T10:59:46;23.40;58.50
3408;DHT22;1717;50.240;8.406;2023-07-02T11:02:14;23.50;58.10
3408;DHT22;1717;50.240;8.406;2023-07-02T11:04:41;23.60;58.20
3408;DHT22;1717;50.240;8.406;2023-07-02T11:07:10;23.70;57.80
3408;DHT22;1717;50.240;8.406;2023-07-02T11:09:37;23.80;57.60
3408;DHT22;1717;50.240;8.406;2023-07-02T11:12:04;23.90;57.10
3408;DHT22;1717;50.240;8.406;2023-07-02T11:14:32;23.90;56.80
3408;DHT22;1717;50.240;8.406;2023-07-02T11:17:01;24.00;56.30
3408;DHT22;1717;50.240;8.406;2023-07-02T11:19:30;23.90;56.00
3408;DHT22;1717;50.240;8.406;2023-07-02T11:21:58;23.90;55.70
3408;DHT22;1717;50.240;8.406;2023-07-02T11:24:30;24.00;55.20
3408;DHT22;1717;50.240;8.406;2023-07-02T11:26:57;24.00;55.10
3408;DHT22;1717;50.240;8.406;2023-07-02T11:29:26;23.90;54.90
3408;DHT22;1717;50.240;8.406;2023-07-02T11:31:53;23.90;54.50
3408;DHT22;1717;50.240;8.406;2023-07-02T11:34:21;23.90;54.20
3408;DHT22;1717;50.240;8.406;2023-07-02T11:36:50;23.90;53.80
3408;DHT22;1717;50.240;8.406;2023-07-02T11:39:19;23.90;53.90
3408;DHT22;1717;50.240;8.406;2023-07-02T11:41:47;23.90;54.30
3408;DHT22;1717;50.240;8.406;2023-07-02T11:44:16;23.90;54.60
3408;DHT22;1717;50.240;8.406;2023-07-02T11:46:43;23.90;54.60
3408;DHT22;1717;50.240;8.406;2023-07-02T11:49:09;23.90;54.50
3408;DHT22;1717;50.240;8.406;2023-07-02T11:51:37;23.90;54.30
3408;DHT22;1717;50.240;8.406;2023-07-02T11:54:06;23.90;54.50
3408;DHT22;1717;50.240;8.406;2023-07-02T11:56:33;23.90;54.80
3408;DHT22;1717;50.240;8.406;2023-07-02T11:59:00;23.90;54.80
3408;DHT22;1717;50.240;8.406;2023-07-02T12:01:27;23.90;54.30
3408;DHT22;1717;50.240;8.406;2023-07-02T12:03:54;23.90;54.30
3408;DHT22;1717;50.240;8.406;2023-07-02T12:06:21;23.90;54.10
3408;DHT22;1717;50.240;8.406;2023-07-02T12:08:48;23.90;54.30
3408;DHT22;1717;50.240;8.406;2023-07-02T12:11:16;23.90;54.50
3408;DHT22;1717;50.240;8.406;2023-07-02T12:13:43;23.90;54.40
3408;DHT22;1717;50.240;8.406;2023-07-02T12:16:10;23.80;54.40
3408;DHT22;1717;50.240;8.406;2023-07-02T12:18:37;23.80;54.40
3408;DHT22;1717;50.240;8.406;2023-07-02T12:21:03;23.90;54.30
3408;DHT22;1717;50.240;8.406;2023-07-02T12:23:30;23.90;54.50
3408;DHT22;1717;50.240;8.406;2023-07-02T12:25:57;23.90;54.30
3408;DHT22;1717;50.240;8.406;2023-07-02T12:28:25;23.90;54.30
3408;DHT22;1717;50.240;8.406;2023-07-02T12:30:52;23.80;54.00
3408;DHT22;1717;50.240;8.406;2023-07-02T12:33:19;23.80;54.20
3408;DHT22;1717;50.240;8.406;2023-07-02T12:35:46;23.80;53.90
3408;DHT22;1717;50.240;8.406;2023-07-02T12:38:13;23.80;53.80
3408;DHT22;1717;50.240;8.406;2023-07-02T12:40:39;23.90;53.60
3408;DHT22;1717;50.240;8.406;2023-07-02T12:43:06;23.80;53.40
3408;DHT22;1717;50.240;8.406;2023-07-02T12:45:34;23.90;53.40
3408;DHT22;1717;50.240;8.406;2023-07-02T12:48:02;23.90;53.00
3408;DHT22;1717;50.240;8.406;2023-07-02T12:50:28;24.00;52.60
3408;DHT22;1717;50.240;8.406;2023-07-02T12:52:55;24.10;51.90
3408;DHT22;1717;50.240;8.406;2023-07-02T12:55:22;24.20;51.90
3408;DHT22;1717;50.240;8.406;2023-07-02T12:57:49;24.30;52.00
3408;DHT22;1717;50.240;8.406;2023-07-02T13:00:16;24.50;52.00
3408;DHT22;1717;50.240;8.406;2023-07-02T13:02:45;24.60;52.00
3408;DHT22;1717;50.240;8.406;2023-07-02T13:05:13;24.80;52.10
3408;DHT22;1717;50.240;8.406;2023-07-02T13:07:40;24.90;51.90
3408;DHT22;1717;50.240;8.406;2023-07-02T13:10:07;25.10;51.60
3408;DHT22;1717;50.240;8.406;2023-07-02T13:12:34;25.20;50.90
3408;DHT22;1717;50.240;8.406;2023-07-02T13:15:01;25.40;50.60
3408;DHT22;1717;50.240;8.406;2023-07-02T13:17:28;25.50;50.50
3408;DHT22;1717;50.240;8.406;2023-07-02T13:19:56;25.50;50.10
3408;DHT22;1717;50.240;8.406;2023-07-02T13:22:23;25.60;49.90
3408;DHT22;1717;50.240;8.406;2023-07-02T13:24:50;25.60;49.10
3408;DHT22;1717;50.240;8.406;2023-07-02T13:27:17;25.60;48.70
3408;DHT22;1717;50.240;8.406;2023-07-02T13:29:45;25.60;48.70
3408;DHT22;1717;50.240;8.406;2023-07-02T13:32:12;25.60;48.60
3408;DHT22;1717;50.240;8.406;2023-07-02T13:34:39;25.60;48.40
3408;DHT22;1717;50.240;8.406;2023-07-02T13:37:08;25.60;48.40
3408;DHT22;1717;50.240;8.406;2023-07-02T13:39:35;25.50;48.50
3408;DHT22;1717;50.240;8.406;2023-07-02T13:42:02;25.60;48.80
3408;DHT22;1717;50.240;8.406;2023-07-02T13:44:29;25.60;48.90
3408;DHT22;1717;50.240;8.406;2023-07-02T13:46:56;25.50;48.90
3408;DHT22;1717;50.240;8.406;2023-07-02T13:49:23;25.50;49.20
3408;DHT22;1717;50.240;8.406;2023-07-02T13:51:50;25.50;49.20
3408;DHT22;1717;50.240;8.406;2023-07-02T13:54:18;25.40;49.30
3408;DHT22;1717;50.240;8.406;2023-07-02T13:56:45;25.40;49.40
3408;DHT22;1717;50.240;8.406;2023-07-02T13:59:15;25.40;49.50
3408;DHT22;1717;50.240;8.406;2023-07-02T14:01:42;25.40;49.70
3408;DHT22;1717;50.240;8.406;2023-07-02T14:04:10;25.40;49.90
3408;DHT22;1717;50.240;8.406;2023-07-02T14:06:37;25.50;50.10
3408;DHT22;1717;50.240;8.406;2023-07-02T14:09:04;25.50;50.20
3408;DHT22;1717;50.240;8.406;2023-07-02T14:11:33;25.60;50.10
3408;DHT22;1717;50.240;8.406;2023-07-02T14:14:00;25.70;49.90
3408;DHT22;1717;50.240;8.406;2023-07-02T14:16:28;25.70;49.80
3408;DHT22;1717;50.240;8.406;2023-07-02T14:18:55;25.70;49.70
3408;DHT22;1717;50.240;8.406;2023-07-02T14:21:22;25.70;49.80
3408;DHT22;1717;50.240;8.406;2023-07-02T14:23:49;25.70;49.80
3408;DHT22;1717;50.240;8.406;2023-07-02T14:26:16;25.70;49.60
3408;DHT22;1717;50.240;8.406;2023-07-02T14:28:43;25.60;49.80
3408;DHT22;1717;50.240;8.406;2023-07-02T14:31:10;25.60;50.60
3408;DHT22;1717;50.240;8.406;2023-07-02T14:33:38;25.60;50.20
3408;DHT22;1717;50.240;8.406;2023-07-02T14:36:06;25.70;50.20
3408;DHT22;1717;50.240;8.406;2023-07-02T14:38:33;25.70;50.20
3408;DHT22;1717;50.240;8.406;2023-07-02T14:41:00;25.80;50.10
3408;DHT22;1717;50.240;8.406;2023-07-02T14:43:28;25.90;50.00
3408;DHT22;1717;50.240;8.406;2023-07-02T14:45:57;26.10;49.80
3408;DHT22;1717;50.240;8.406;2023-07-02T14:48:25;26.20;48.80
3408;DHT22;1717;50.240;8.406;2023-07-02T14:50:54;26.20;49.10
3408;DHT22;1717;50.240;8.406;2023-07-02T14:53:22;26.30;48.90
3408;DHT22;1717;50.240;8.406;2023-07-02T14:55:49;26.30;48.40
3408;DHT22;1717;50.240;8.406;2023-07-02T14:58:17;26.30;48.50
3408;DHT22;1717;50.240;8.406;2023-07-02T15:00:44;26.20;48.30
3408;DHT22;1717;50.240;8.406;2023-07-02T15:03:12;26.20;48.40
3408;DHT22;1717;50.240;8.406;2023-07-02T15:05:39;26.20;48.70
3408;DHT22;1717;50.240;8.406;2023-07-02T15:08:08;26.10;48.70
3408;DHT22;1717;50.240;8.406;2023-07-02T15:10:35;26.10;48.50
3408;DHT22;1717;50.240;8.406;2023-07-02T15:13:04;26.10;48.70
3408;DHT22;1717;50.240;8.406;2023-07-02T15:15:31;26.10;48.60
3408;DHT22;1717;50.240;8.406;2023-07-02T15:17:58;26.20;48.70
3408;DHT22;1717;50.240;8.406;2023-07-02T15:20:25;26.30;48.40
3408;DHT22;1717;50.240;8.406;2023-07-02T15:22:52;26.40;48.20
3408;DHT22;1717;50.240;8.406;2023-07-02T15:25:20;26.40;48.20
3408;DHT22;1717;50.240;8.406;2023-07-02T15:27:47;26.40;48.50
3408;DHT22;1717;50.240;8.406;2023-07-02T15:30:14;26.40;47.80
3408;DHT22;1717;50.240;8.406;2023-07-02T15:32:41;26.40;48.00
3408;DHT22;1717;50.240;8.406;2023-07-02T15:35:08;26.40;48.00
3408;DHT22;1717;50.240;8.406;2023-07-02T15:37:35;26.30;48.00
3408;DHT22;1717;50.240;8.406;2023-07-02T15:40:02;26.30;48.10
3408;DHT22;1717;50.240;8.406;2023-07-02T15:42:31;26.30;48.40
3408;DHT22;1717;50.240;8.406;2023-07-02T15:44:58;26.40;48.70
3408;DHT22;1717;50.240;8.406;2023-07-02T15:47:25;26.40;48.60
3408;DHT22;1717;50.240;8.406;2023-07-02T15:49:52;26.50;48.70
3408;DHT22;1717;50.240;8.406;2023-07-02T15:52:20;26.50;48.70
3408;DHT22;1717;50.240;8.406;2023-07-02T15:54:47;26.50;47.80
3408;DHT22;1717;50.240;8.406;2023-07-02T15:57:14;26.50;47.60
3408;DHT22;1717;50.240;8.406;2023-07-02T15:59:42;26.50;47.50
3408;DHT22;1717;50.240;8.406;2023-07-02T16:02:09;26.50;47.00
3408;DHT22;1717;50.240;8.406;2023-07-02T16:04:36;26.50;46.80